createdAt,value
2022-09-12T00:00:36.194Z,16.24
2022-09-12T00:03:06.195Z,16.22
2022-09-12T00:05:36.567Z,16.20
2022-09-12T00:08:06.625Z,16.18
2022-09-12T00:10:37.168Z,16.16
2022-09-12T00:13:07.384Z,16.15
2022-09-12T00:15:37.744Z,16.15
2022-09-12T00:18:08.092Z,16.15
2022-09-12T00:20:38.482Z,16.13
2022-09-12T00:23:08.833Z,16.14
2022-09-12T00:25:39.213Z,16.10
2022-09-12T00:28:09.588Z,16.07
2022-09-12T00:30:39.969Z,16.03
2022-09-12T00:33:10.314Z,16.00
2022-09-12T00:35:40.706Z,15.96
2022-09-12T00:38:11.053Z,15.90
2022-09-12T00:40:41.433Z,15.83
2022-09-12T00:43:11.815Z,15.78
2022-09-12T00:45:41.947Z,15.75
2022-09-12T00:48:11.913Z,15.77
2022-09-12T00:50:42.015Z,15.78
2022-09-12T00:53:12.365Z,15.74
2022-09-12T00:55:42.779Z,15.67
2022-09-12T00:58:13.144Z,15.68
2022-09-12T01:00:43.352Z,15.67
2022-09-12T01:03:13.637Z,15.64
2022-09-12T01:05:43.688Z,15.60
2022-09-12T01:08:14.057Z,15.56
2022-09-12T01:10:44.281Z,15.53
2022-09-12T01:13:14.595Z,15.51
2022-09-12T01:15:45.126Z,15.46
2022-09-12T01:18:15.364Z,15.41
2022-09-12T01:20:45.794Z,15.39
2022-09-12T01:23:16.159Z,15.37
2022-09-12T01:25:46.588Z,15.36
2022-09-12T01:28:16.989Z,15.34
2022-09-12T01:30:47.382Z,15.34
2022-09-12T01:33:17.777Z,15.31
2022-09-12T01:35:48.226Z,15.30
2022-09-12T01:38:18.316Z,15.30
2022-09-12T01:40:48.769Z,15.28
2022-09-12T01:43:18.863Z,15.27
2022-09-12T01:45:49.739Z,15.23
2022-09-12T01:48:20.271Z,15.22
2022-09-12T01:50:50.657Z,15.22
2022-09-12T01:53:21.056Z,15.22
2022-09-12T01:55:51.514Z,15.19
2022-09-12T01:58:21.867Z,15.18
2022-09-12T02:00:52.320Z,15.14
2022-09-12T02:03:22.358Z,15.03
2022-09-12T02:05:52.790Z,14.99
2022-09-12T02:08:23.178Z,14.99
2022-09-12T02:10:53.636Z,14.99
2022-09-12T02:13:23.998Z,14.96
2022-09-12T02:15:54.858Z,14.95
2022-09-12T02:18:25.391Z,14.90
2022-09-12T02:20:55.919Z,14.91
2022-09-12T02:23:25.968Z,14.93
2022-09-12T02:25:56.154Z,14.94
2022-09-12T02:28:26.537Z,14.91
2022-09-12T02:30:56.675Z,14.88
2022-09-12T02:33:27.329Z,14.87
2022-09-12T02:35:57.514Z,14.86
2022-09-12T02:38:27.858Z,14.84
2022-09-12T02:40:58.549Z,14.84
2022-09-12T02:43:28.678Z,14.84
2022-09-12T02:45:58.827Z,14.80
2022-09-12T02:48:28.920Z,14.78
2022-09-12T02:50:59.374Z,14.72
2022-09-12T02:53:29.506Z,14.71
2022-09-12T02:55:59.655Z,14.69
2022-09-12T02:58:29.731Z,14.67
2022-09-12T03:01:00.185Z,14.67
2022-09-12T03:03:30.458Z,14.65
2022-09-12T03:06:01.125Z,14.62
2022-09-12T03:08:31.527Z,14.59
2022-09-12T03:11:02.014Z,14.60
2022-09-12T03:13:32.382Z,14.58
2022-09-12T03:16:02.645Z,14.56
2022-09-12T03:18:32.967Z,14.56
2022-09-12T03:21:03.445Z,14.52
2022-09-12T03:23:33.555Z,14.50
2022-09-12T03:26:04.067Z,14.48
2022-09-12T03:28:34.733Z,14.47
2022-09-12T03:31:04.935Z,14.47
2022-09-12T03:33:35.579Z,14.45
2022-09-12T03:36:05.702Z,14.43
2022-09-12T03:38:35.851Z,14.39
2022-09-12T03:41:06.235Z,14.39
2022-09-12T03:43:36.682Z,14.36
2022-09-12T03:46:07.232Z,14.35
2022-09-12T03:48:37.581Z,14.34
2022-09-12T03:51:07.768Z,14.32
2022-09-12T03:53:38.190Z,14.30
2022-09-12T03:56:08.694Z,14.28
2022-09-12T03:58:38.811Z,14.26
2022-09-12T04:01:09.362Z,14.24
2022-09-12T04:03:39.382Z,14.22
2022-09-12T04:06:09.655Z,14.21
2022-09-12T04:08:40.493Z,14.20
2022-09-12T04:11:11.027Z,14.19
2022-09-12T04:13:41.420Z,14.16
2022-09-12T04:16:11.764Z,14.13
2022-09-12T04:18:42.154Z,14.12
2022-09-12T04:21:12.926Z,14.08
2022-09-12T04:23:43.368Z,14.06
2022-09-12T04:26:14.118Z,14.04
2022-09-12T04:28:44.955Z,14.02
2022-09-12T04:31:15.051Z,14.00
2022-09-12T04:33:45.169Z,13.95
2022-09-12T04:36:15.684Z,13.94
2022-09-12T04:38:46.374Z,13.92
2022-09-12T04:41:16.469Z,13.91
2022-09-12T04:43:46.890Z,13.89
2022-09-12T04:46:17.378Z,13.88
2022-09-12T04:48:47.911Z,13.85
2022-09-12T04:51:18.501Z,13.85
2022-09-12T04:53:48.485Z,13.83
2022-09-12T04:56:18.630Z,13.82
2022-09-12T04:58:49.035Z,13.81
2022-09-12T05:01:19.893Z,13.80
2022-09-12T05:03:50.712Z,13.79
2022-09-12T05:06:21.168Z,13.73
2022-09-12T05:08:51.291Z,13.71
2022-09-12T05:11:24.760Z,13.66
2022-09-12T05:13:51.939Z,13.64
2022-09-12T05:16:22.767Z,13.62
2022-09-12T05:18:53.498Z,13.61
2022-09-12T05:21:23.699Z,13.60
2022-09-12T05:23:54.395Z,13.58
2022-09-12T05:26:24.978Z,13.58
2022-09-12T05:28:55.195Z,13.57
2022-09-12T05:31:25.701Z,13.60
2022-09-12T05:33:56.373Z,13.61
2022-09-12T05:36:26.677Z,13.62
2022-09-12T05:38:57.512Z,13.65
2022-09-12T05:41:27.952Z,13.68
2022-09-12T05:43:58.010Z,13.72
2022-09-12T05:46:28.683Z,13.77
2022-09-12T05:48:59.283Z,13.83
2022-09-12T05:51:29.463Z,13.88
2022-09-12T05:53:59.842Z,13.94
2022-09-12T05:56:30.404Z,14.01
2022-09-12T05:59:00.578Z,14.10
2022-09-12T06:01:31.382Z,14.16
2022-09-12T06:04:01.516Z,14.24
2022-09-12T06:06:32.305Z,14.32
2022-09-12T06:09:03.118Z,14.43
2022-09-12T06:11:33.138Z,14.53
2022-09-12T06:14:03.583Z,14.62
2022-09-12T06:16:34.263Z,14.71
2022-09-12T06:19:04.541Z,14.81
2022-09-12T06:21:34.716Z,14.90
2022-09-12T06:24:05.188Z,15.00
2022-09-12T06:26:35.738Z,15.10
2022-09-12T06:29:06.230Z,15.17
2022-09-12T06:31:36.966Z,15.25
2022-09-12T06:34:07.637Z,15.32
2022-09-12T06:36:38.202Z,15.39
2022-09-12T06:39:08.971Z,15.49
2022-09-12T06:41:43.117Z,15.55
2022-09-12T06:44:09.563Z,15.61
2022-09-12T06:46:39.754Z,15.70
2022-09-12T06:49:09.932Z,15.77
2022-09-12T06:51:40.769Z,15.83
2022-09-12T06:54:11.409Z,15.89
2022-09-12T06:56:41.616Z,15.96
2022-09-12T06:59:11.806Z,16.02
2022-09-12T07:01:42.732Z,16.09
2022-09-12T07:04:12.773Z,16.17
2022-09-12T07:06:43.439Z,16.25
2022-09-12T07:09:13.440Z,16.29
2022-09-12T07:11:44.292Z,16.30
2022-09-12T07:14:15.141Z,16.35
2022-09-12T07:16:45.543Z,16.37
2022-09-12T07:19:15.605Z,16.41
2022-09-12T07:21:45.957Z,16.45
2022-09-12T07:24:16.275Z,16.49
2022-09-12T07:26:47.013Z,16.54
2022-09-12T07:29:36.648Z,16.60
2022-09-12T07:31:47.700Z,16.63
2022-09-12T07:34:18.318Z,16.68
2022-09-12T07:36:48.420Z,16.69
2022-09-12T07:39:18.728Z,16.72
2022-09-12T07:41:48.882Z,16.75
2022-09-12T07:44:19.419Z,16.78
2022-09-12T07:46:49.902Z,16.85
2022-09-12T07:49:20.234Z,16.89
2022-09-12T07:51:50.228Z,16.95
2022-09-12T07:54:20.241Z,17.00
2022-09-12T07:56:50.342Z,17.07
2022-09-12T07:59:35.671Z,17.08
2022-09-12T08:01:51.561Z,17.16
2022-09-12T08:04:22.205Z,17.23
2022-09-12T08:06:52.311Z,17.29
2022-09-12T08:09:22.651Z,17.33
2022-09-12T08:11:53.605Z,17.34
2022-09-12T08:14:23.808Z,17.37
2022-09-12T08:16:53.974Z,17.43
2022-09-12T08:19:24.769Z,17.50
2022-09-12T08:21:54.867Z,17.54
2022-09-12T08:24:25.095Z,17.56
2022-09-12T08:26:55.348Z,17.60
2022-09-12T08:29:25.435Z,17.66
2022-09-12T08:31:57.410Z,17.71
2022-09-12T08:34:25.806Z,17.77
2022-09-12T08:36:56.043Z,17.84
2022-09-12T08:39:26.218Z,17.85
2022-09-12T08:41:56.347Z,17.89
2022-09-12T08:44:27.004Z,17.91
2022-09-12T08:46:57.311Z,17.96
2022-09-12T08:49:27.660Z,18.04
2022-09-12T08:51:57.951Z,18.10
2022-09-12T08:54:28.204Z,18.14
2022-09-12T08:56:58.302Z,18.20
2022-09-12T08:59:28.790Z,18.25
2022-09-12T09:01:59.436Z,18.28
2022-09-12T09:04:29.582Z,18.33
2022-09-12T09:06:59.732Z,18.34
2022-09-12T09:09:29.999Z,18.40
2022-09-12T09:12:00.085Z,18.48
2022-09-12T09:14:30.616Z,18.55
2022-09-12T09:17:00.990Z,18.59
2022-09-12T09:19:31.139Z,18.64
2022-09-12T09:22:02.051Z,18.65
2022-09-12T09:24:33.863Z,18.67
2022-09-12T09:27:03.293Z,18.72
2022-09-12T09:29:33.844Z,18.75
2022-09-12T09:32:04.484Z,18.80
2022-09-12T09:34:34.726Z,18.88
2022-09-12T09:37:04.928Z,18.93
2022-09-12T09:39:34.995Z,19.00
2022-09-12T09:42:05.641Z,19.01
2022-09-12T09:44:35.899Z,19.09
2022-09-12T09:47:06.281Z,19.17
2022-09-12T09:49:36.279Z,19.23
2022-09-12T09:52:06.822Z,19.31
2022-09-12T09:54:36.906Z,19.37
2022-09-12T09:57:07.549Z,19.48
2022-09-12T09:59:38.160Z,19.55
2022-09-12T10:02:08.508Z,19.64
2022-09-12T10:04:41.387Z,19.74
2022-09-12T10:07:09.665Z,19.84
2022-09-12T10:09:39.998Z,19.85
2022-09-12T10:12:10.373Z,19.91
2022-09-12T10:14:40.570Z,19.91
2022-09-12T10:17:11.235Z,20.05
2022-09-12T10:19:41.911Z,20.10
2022-09-12T10:22:12.500Z,20.18
2022-09-12T10:24:42.558Z,20.27
2022-09-12T10:27:12.758Z,20.36
2022-09-12T10:29:43.180Z,20.43
2022-09-12T10:32:13.494Z,20.48
2022-09-12T10:34:44.016Z,20.54
2022-09-12T10:37:14.557Z,20.63
2022-09-12T10:39:45.417Z,20.72
2022-09-12T10:42:19.247Z,20.73
2022-09-12T10:44:46.536Z,20.82
2022-09-12T10:47:17.306Z,20.97
2022-09-12T10:49:47.515Z,21.06
2022-09-12T10:52:17.721Z,21.11
2022-09-12T10:54:47.882Z,21.15
2022-09-12T10:57:18.503Z,21.19
2022-09-12T10:59:48.905Z,21.28
2022-09-12T11:02:19.761Z,21.32
2022-09-12T11:04:50.495Z,21.40
2022-09-12T11:07:21.288Z,21.30
2022-09-12T11:09:52.146Z,21.36
2022-09-12T11:12:23.007Z,21.43
2022-09-12T11:14:53.191Z,21.39
2022-09-12T11:17:23.448Z,21.45
2022-09-12T11:19:54.221Z,21.47
2022-09-12T11:22:27.695Z,21.54
2022-09-12T11:24:55.311Z,21.62
2022-09-12T11:27:25.499Z,21.60
2022-09-12T11:29:55.677Z,21.67
2022-09-12T11:32:26.496Z,21.77
2022-09-12T11:34:56.679Z,21.81
2022-09-12T11:37:27.257Z,21.85
2022-09-12T11:39:58.006Z,21.95
2022-09-12T11:42:28.214Z,21.89
2022-09-12T11:44:58.654Z,21.96
2022-09-12T11:47:28.851Z,22.04
2022-09-12T11:49:59.317Z,22.02
2022-09-12T11:52:29.602Z,22.05
2022-09-12T11:54:59.733Z,22.17
2022-09-12T11:57:29.987Z,22.20
2022-09-12T12:00:00.667Z,22.27
2022-09-12T12:02:31.512Z,22.46
2022-09-12T12:05:01.627Z,22.54
2022-09-12T12:07:31.841Z,22.46
2022-09-12T12:10:02.177Z,22.55
2022-09-12T12:12:33.094Z,22.58
2022-09-12T12:15:03.221Z,22.56
2022-09-12T12:17:33.441Z,22.58
2022-09-12T12:20:06.719Z,22.56
2022-09-12T12:22:33.799Z,22.68
2022-09-12T12:25:04.530Z,22.63
2022-09-12T12:27:34.759Z,22.71
2022-09-12T12:30:04.901Z,22.67
2022-09-12T12:32:35.112Z,22.69
2022-09-12T12:35:05.347Z,22.69
2022-09-12T12:37:35.486Z,22.67
2022-09-12T12:40:05.685Z,22.76
2022-09-12T12:42:35.895Z,22.86
2022-09-12T12:45:06.128Z,22.94
2022-09-12T12:47:36.737Z,22.94
2022-09-12T12:50:06.878Z,22.97
2022-09-12T12:52:37.331Z,23.01
2022-09-12T12:55:07.436Z,23.08
2022-09-12T12:57:38.228Z,23.16
2022-09-12T13:00:08.335Z,23.24
2022-09-12T13:02:38.705Z,23.17
2022-09-12T13:05:08.696Z,23.16
2022-09-12T13:07:38.891Z,23.13
2022-09-12T13:10:09.031Z,23.14
2022-09-12T13:12:39.228Z,23.21
2022-09-12T13:15:09.358Z,23.31
2022-09-12T13:17:39.543Z,23.42
2022-09-12T13:20:27.172Z,23.45
2022-09-12T13:22:39.864Z,23.49
2022-09-12T13:25:10.588Z,23.47
2022-09-12T13:27:40.854Z,23.49
2022-09-12T13:30:10.869Z,23.52
2022-09-12T13:32:41.044Z,23.56
2022-09-12T13:35:11.181Z,23.52
2022-09-12T13:37:41.399Z,23.40
2022-09-12T13:40:11.668Z,23.45
2022-09-12T13:42:41.774Z,23.49
2022-09-12T13:45:11.844Z,23.55
2022-09-12T13:47:42.591Z,23.49
2022-09-12T13:50:12.722Z,23.47
2022-09-12T13:52:42.911Z,23.50
2022-09-12T13:55:13.046Z,23.54
2022-09-12T13:57:43.310Z,23.58
2022-09-12T14:00:13.911Z,23.62
2022-09-12T14:02:44.086Z,23.55
2022-09-12T14:05:14.214Z,23.63
2022-09-12T14:07:44.953Z,23.73
2022-09-12T14:10:15.094Z,23.75
2022-09-12T14:12:45.286Z,23.75
2022-09-12T14:15:15.392Z,23.79
2022-09-12T14:17:45.564Z,23.85
2022-09-12T14:20:15.803Z,23.85
2022-09-12T14:22:49.326Z,23.79
2022-09-12T14:25:16.025Z,23.78
2022-09-12T14:27:46.219Z,23.56
2022-09-12T14:30:16.376Z,23.61
2022-09-12T14:32:46.490Z,23.59
2022-09-12T14:35:16.631Z,23.60
2022-09-12T14:37:46.844Z,23.66
2022-09-12T14:40:17.010Z,23.69
2022-09-12T14:42:47.142Z,23.73
2022-09-12T14:45:17.243Z,23.79
2022-09-12T14:47:47.399Z,23.73
2022-09-12T14:50:17.515Z,23.68
2022-09-12T14:52:47.665Z,23.78
2022-09-12T14:55:17.755Z,23.81
2022-09-12T14:57:47.931Z,23.76
2022-09-12T15:00:18.016Z,23.70
2022-09-12T15:02:48.157Z,23.65
2022-09-12T15:05:18.252Z,23.68
2022-09-12T15:07:48.406Z,23.66
2022-09-12T15:10:18.542Z,23.73
2022-09-12T15:12:48.703Z,23.79
2022-09-12T15:15:18.774Z,23.83
2022-09-12T15:17:48.932Z,23.93
2022-09-12T15:20:19.044Z,23.91
2022-09-12T15:22:49.196Z,23.88
2022-09-12T15:25:19.299Z,23.91
2022-09-12T15:27:50.055Z,23.89
2022-09-12T15:30:20.133Z,23.93
2022-09-12T15:32:50.847Z,23.88
2022-09-12T15:35:20.952Z,23.82
2022-09-12T15:37:51.090Z,23.76
2022-09-12T15:40:21.245Z,23.82
2022-09-12T15:42:51.423Z,23.79
2022-09-12T15:45:21.462Z,23.80
2022-09-12T15:47:51.630Z,23.80
2022-09-12T15:50:21.745Z,23.80
2022-09-12T15:52:51.890Z,23.72
2022-09-12T15:55:22.010Z,23.72
2022-09-12T15:57:52.185Z,23.65
2022-09-12T16:00:22.266Z,23.64
2022-09-12T16:02:52.434Z,23.69
2022-09-12T16:05:22.537Z,23.72
2022-09-12T16:07:52.755Z,23.65
2022-09-12T16:10:22.996Z,23.64
2022-09-12T16:12:53.125Z,23.66
2022-09-12T16:15:23.147Z,23.65
2022-09-12T16:17:53.263Z,23.68
2022-09-12T16:20:23.385Z,23.68
2022-09-12T16:22:53.544Z,23.72
2022-09-12T16:25:23.676Z,23.70
2022-09-12T16:27:54.511Z,23.66
2022-09-12T16:30:24.612Z,23.63
2022-09-12T16:32:55.242Z,23.56
2022-09-12T16:35:25.361Z,23.53
2022-09-12T16:37:55.671Z,23.45
2022-09-12T16:40:25.716Z,23.42
2022-09-12T16:42:55.919Z,23.32
2022-09-12T16:45:26.036Z,23.24
2022-09-12T16:47:56.232Z,23.19
2022-09-12T16:50:26.383Z,23.21
2022-09-12T16:52:56.692Z,23.15
2022-09-12T16:55:26.735Z,23.16
2022-09-12T16:57:56.958Z,23.06
2022-09-12T17:00:27.084Z,23.01
2022-09-12T17:02:57.420Z,23.04
2022-09-12T17:05:27.439Z,23.01
2022-09-12T17:07:57.630Z,22.99
2022-09-12T17:10:28.360Z,22.94
2022-09-12T17:12:58.600Z,22.93
2022-09-12T17:15:28.718Z,22.89
2022-09-12T17:17:59.018Z,22.88
2022-09-12T17:20:29.062Z,22.90
2022-09-12T17:22:59.241Z,22.90
2022-09-12T17:25:29.489Z,22.89
2022-09-12T17:27:59.638Z,22.86
2022-09-12T17:30:29.765Z,22.85
2022-09-12T17:33:00.064Z,22.83
2022-09-12T17:35:30.114Z,22.78
2022-09-12T17:38:00.312Z,22.73
2022-09-12T17:40:55.671Z,22.69
2022-09-12T17:43:00.671Z,22.65
2022-09-12T17:45:30.842Z,22.60
2022-09-12T17:48:01.074Z,22.54
2022-09-12T17:50:32.484Z,22.48
2022-09-12T17:53:01.364Z,22.38
2022-09-12T17:55:31.541Z,22.30
2022-09-12T17:58:01.882Z,22.22
2022-09-12T18:00:32.503Z,22.18
2022-09-12T18:03:02.739Z,22.10
2022-09-12T18:05:32.915Z,22.05
2022-09-12T18:08:03.185Z,21.99
2022-09-12T18:10:33.314Z,21.93
2022-09-12T18:13:03.569Z,21.85
2022-09-12T18:15:33.724Z,21.75
2022-09-12T18:18:03.933Z,21.66
2022-09-12T18:20:34.156Z,21.59
2022-09-12T18:23:04.389Z,21.56
2022-09-12T18:25:34.565Z,21.52
2022-09-12T18:28:09.015Z,21.49
2022-09-12T18:30:34.983Z,21.46
2022-09-12T18:33:05.230Z,21.43
2022-09-12T18:35:35.436Z,21.39
2022-09-12T18:38:05.664Z,21.39
2022-09-12T18:40:35.886Z,21.37
2022-09-12T18:43:06.202Z,21.36
2022-09-12T18:45:36.334Z,21.35
2022-09-12T18:48:06.620Z,21.31
2022-09-12T18:50:36.779Z,21.29
2022-09-12T18:53:07.021Z,21.26
2022-09-12T18:55:37.226Z,21.21
2022-09-12T18:58:07.529Z,21.14
2022-09-12T19:00:37.719Z,21.10
2022-09-12T19:03:07.936Z,21.07
2022-09-12T19:05:38.147Z,21.02
2022-09-12T19:08:08.498Z,20.96
2022-09-12T19:10:38.636Z,20.93
2022-09-12T19:13:08.932Z,20.91
2022-09-12T19:15:39.166Z,20.86
2022-09-12T19:18:09.393Z,20.77
2022-09-12T19:20:39.625Z,20.70
2022-09-12T19:23:09.897Z,20.63
2022-09-12T19:25:40.165Z,20.58
2022-09-12T19:28:10.476Z,20.51
2022-09-12T19:30:44.819Z,20.44
2022-09-12T19:33:10.963Z,20.37
2022-09-12T19:35:41.187Z,20.31
2022-09-12T19:38:11.582Z,20.24
2022-09-12T19:40:41.730Z,20.17
2022-09-12T19:43:12.072Z,20.10
2022-09-12T19:45:42.319Z,20.01
2022-09-12T19:48:12.355Z,19.97
2022-09-12T19:50:42.630Z,19.96
2022-09-12T19:53:12.672Z,19.92
2022-09-12T19:55:42.967Z,19.87
2022-09-12T19:58:13.320Z,19.84
2022-09-12T20:00:43.606Z,19.80
2022-09-12T20:03:14.001Z,19.76
2022-09-12T20:05:44.013Z,19.72
2022-09-12T20:08:14.393Z,19.68
2022-09-12T20:10:44.443Z,19.66
2022-09-12T20:13:14.819Z,19.60
2022-09-12T20:15:45.067Z,19.55
2022-09-12T20:18:15.327Z,19.51
2022-09-12T20:20:45.603Z,19.47
2022-09-12T20:23:16.218Z,19.42
2022-09-12T20:25:46.495Z,19.41
2022-09-12T20:28:16.859Z,19.38
2022-09-12T20:30:47.141Z,19.36
2022-09-12T20:33:17.364Z,19.35
2022-09-12T20:35:47.692Z,19.36
2022-09-12T20:38:17.944Z,19.34
2022-09-12T20:40:48.267Z,19.30
2022-09-12T20:43:18.568Z,19.30
2022-09-12T20:45:49.407Z,19.29
2022-09-12T20:48:19.741Z,19.28
2022-09-12T20:50:49.986Z,19.28
2022-09-12T20:53:20.258Z,19.25
2022-09-12T20:55:50.586Z,19.23
2022-09-12T20:58:20.885Z,19.22
2022-09-12T21:00:51.720Z,19.20
2022-09-12T21:03:22.577Z,19.19
2022-09-12T21:05:53.478Z,19.18
2022-09-12T21:08:23.759Z,19.15
2022-09-12T21:10:54.090Z,19.13
2022-09-12T21:13:24.444Z,19.09
2022-09-12T21:15:54.713Z,19.06
2022-09-12T21:18:24.949Z,19.04
2022-09-12T21:20:55.287Z,19.02
2022-09-12T21:23:25.578Z,19.02
2022-09-12T21:25:55.901Z,19.04
2022-09-12T21:28:26.220Z,19.02
2022-09-12T21:30:56.565Z,19.01
2022-09-12T21:33:26.782Z,19.01
2022-09-12T21:35:57.087Z,19.00
2022-09-12T21:38:27.363Z,18.98
2022-09-12T21:40:57.691Z,18.96
2022-09-12T21:43:28.038Z,18.96
2022-09-12T21:45:58.320Z,18.94
2022-09-12T21:48:28.595Z,18.96
2022-09-12T21:50:58.926Z,18.96
2022-09-12T21:53:29.219Z,18.97
2022-09-12T21:55:59.549Z,18.97
2022-09-12T21:58:29.876Z,18.96
2022-09-12T22:01:00.256Z,18.95
2022-09-12T22:03:30.435Z,18.95
2022-09-12T22:06:00.760Z,18.96
2022-09-12T22:08:31.625Z,18.96
2022-09-12T22:11:01.934Z,18.97
2022-09-12T22:13:32.488Z,18.95
2022-09-12T22:16:03.765Z,18.95
2022-09-12T22:18:33.377Z,18.93
2022-09-12T22:21:03.706Z,18.92
2022-09-12T22:23:33.974Z,18.88
2022-09-12T22:26:04.860Z,18.84
2022-09-12T22:28:35.171Z,18.84
2022-09-12T22:31:05.533Z,18.82
2022-09-12T22:33:35.745Z,18.79
2022-09-12T22:36:06.088Z,18.79
2022-09-12T22:38:36.433Z,18.75
2022-09-12T22:41:06.707Z,18.77
2022-09-12T22:43:36.994Z,18.76
2022-09-12T22:46:07.317Z,18.75
2022-09-12T22:48:37.567Z,18.74
2022-09-12T22:51:07.884Z,18.71
2022-09-12T22:53:38.161Z,18.69
2022-09-12T22:56:09.019Z,18.72
2022-09-12T22:58:39.316Z,18.72
2022-09-12T23:01:09.626Z,18.70
2022-09-12T23:03:39.878Z,18.72
2022-09-12T23:06:10.744Z,18.75
2022-09-12T23:08:40.998Z,18.75
2022-09-12T23:11:11.320Z,18.77
2022-09-12T23:13:42.233Z,18.78
2022-09-12T23:16:12.563Z,18.82
2022-09-12T23:18:42.710Z,18.87
2022-09-12T23:21:13.016Z,18.89
2022-09-12T23:23:43.264Z,18.91
2022-09-12T23:26:13.614Z,18.90
2022-09-12T23:28:43.931Z,18.91
2022-09-12T23:31:14.745Z,18.85
2022-09-12T23:33:44.945Z,18.88
2022-09-12T23:36:15.240Z,18.92
2022-09-12T23:38:45.741Z,18.93
2022-09-12T23:41:16.003Z,18.93
2022-09-12T23:43:46.455Z,18.97
2022-09-12T23:46:16.556Z,19.02
2022-09-12T23:48:46.808Z,19.05
2022-09-12T23:51:17.114Z,19.13
2022-09-12T23:53:47.367Z,19.16
2022-09-12T23:56:17.641Z,19.19
2022-09-12T23:58:48.024Z,19.19
